Time,TemperatureF,DewpointF,PressureIn,WindDirection,WindDirectionDegrees,WindSpeedMPH,WindSpeedGustMPH,Humidity,HourlyPrecipIn,Conditions,Clouds,dailyrainin,SoftwareType,DateUTC
2013-08-30 00:00:00,69.8,29.2,29.06,East,85,0.0,0.0,22,0.00,CLR,,0.00,WeatherDisplay:10.37,2013-08-30 04:00:00,
2013-08-30 00:05:00,69.6,29.1,29.06,East,85,0.0,0.0,22,0.00,CLR,,0.00,WeatherDisplay:10.37,2013-08-30 04:05:00,
2013-08-30 00:10:00,69.4,28.9,29.06,East,85,0.0,0.0,22,0.00,CLR,,0.00,WeatherDisplay:10.37,2013-08-30 04:10:00,
2013-08-30 00:15:00,69.3,28.8,29.06,East,85,0.0,0.0,22,0.00,CLR,,0.00,WeatherDisplay:10.37,2013-08-30 04:15:00,
2013-08-30 00:20:00,69.3,28.8,29.06,East,85,0.0,0.0,22,0.00,CLR,,0.00,WeatherDisplay:10.37,2013-08-30 04:20:00,
2013-08-30 00:25:00,69.3,28.8,29.06,East,85,0.0,0.0,22,0.00,CLR,,0.00,WeatherDisplay:10.37,2013-08-30 04:25:00,
2013-08-30 00:30:00,69.3,28.8,29.06,East,85,0.0,0.0,22,0.00,CLR,,0.00,WeatherDisplay:10.37,2013-08-30 04:30:00,
2013-08-30 00:40:00,69.1,28.6,29.06,East,85,0.0,0.0,22,0.00,CLR,,0.00,WeatherDisplay:10.37,2013-08-30 04:40:00,
2013-08-30 00:45:00,69.1,28.6,29.06,East,85,0.0,0.0,22,0.00,CLR,,0.00,WeatherDisplay:10.37,2013-08-30 04:45:00,
2013-08-30 00:50:00,68.9,28.5,29.06,East,85,0.0,0.0,22,0.00,CLR,,0.00,WeatherDisplay:10.37,2013-08-30 04:50:00,
2013-08-30 01:00:00,68.5,28.1,29.06,East,85,0.0,0.0,22,0.00,CLR,,0.00,WeatherDisplay:10.37,2013-08-30 05:00:00,
2013-08-30 01:05:00,68.2,27.9,29.06,East,85,0.0,0.0,22,0.00,CLR,,0.00,WeatherDisplay:10.37,2013-08-30 05:05:00,
2013-08-30 01:10:00,68.2,27.9,29.05,East,85,0.0,0.0,22,0.00,CLR,,0.00,WeatherDisplay:10.37,2013-08-30 05:10:00,
2013-08-30 01:15:00,68.2,27.8,29.03,East,85,0.0,0.0,22,0.00,CLR,,0.00,WeatherDisplay:10.37,2013-08-30 05:15:00,
2013-08-30 01:20:00,67.9,28.7,29.03,East,85,0.0,0.0,23,0.00,CLR,,0.00,WeatherDisplay:10.37,2013-08-30 05:20:00,
2013-08-30 01:25:00,67.6,28.5,29.05,East,85,0.0,0.0,23,0.00,CLR,,0.00,WeatherDisplay:10.37,2013-08-30 05:25:00,
2013-08-30 01:30:00,67.6,28.5,29.06,East,85,0.0,0.0,23,0.00,CLR,,0.00,WeatherDisplay:10.37,2013-08-30 05:30:00,
2013-08-30 01:40:00,67.6,28.5,29.04,East,85,0.0,0.0,23,0.00,CLR,,0.00,WeatherDisplay:10.37,2013-08-30 05:40:00,
2013-08-30 01:50:00,67.5,28.3,29.03,East,85,0.0,0.0,23,0.00,CLR,,0.00,WeatherDisplay:10.37,2013-08-30 05:50:00,
2013-08-30 02:00:00,67.5,28.3,29.03,East,85,0.0,0.0,23,0.00,CLR,,0.00,WeatherDisplay:10.37,2013-08-30 06:00:00,
2013-08-30 02:10:00,67.3,28.2,29.03,East,85,0.0,0.0,23,0.00,CLR,,0.00,WeatherDisplay:10.37,2013-08-30 06:10:00,
2013-08-30 02:20:00,67.1,28.0,29.03,East,85,0.0,0.0,23,0.00,CLR,,0.00,WeatherDisplay:10.37,2013-08-30 06:20:00,
2013-08-30 02:25:00,66.9,27.8,29.03,East,85,0.0,0.0,23,0.00,CLR,,0.00,WeatherDisplay:10.37,2013-08-30 06:25:00,
2013-08-30 02:35:00,66.7,27.7,29.03,East,85,0.0,0.0,23,0.00,CLR,,0.00,WeatherDisplay:10.37,2013-08-30 06:35:00,
2013-08-30 02:40:00,66.7,27.7,29.03,East,85,0.0,0.0,23,0.00,CLR,,0.00,WeatherDisplay:10.37,2013-08-30 06:40:00,
2013-08-30 02:45:00,66.7,27.7,29.03,East,85,0.0,0.0,23,0.00,CLR,,0.00,WeatherDisplay:10.37,2013-08-30 06:45:00,
2013-08-30 02:55:00,66.6,27.6,29.03,East,85,0.0,0.0,23,0.00,CLR,,0.00,WeatherDisplay:10.37,2013-08-30 06:55:00,
2013-08-30 03:00:00,66.4,27.4,29.03,East,85,0.0,0.0,23,0.00,CLR,,0.00,WeatherDisplay:10.37,2013-08-30 07:00:00,
2013-08-30 03:10:00,66.4,27.4,29.03,East,85,0.0,0.0,23,0.00,CLR,,0.00,WeatherDisplay:10.37,2013-08-30 07:10:00,
2013-08-30 03:20:00,66.4,27.4,29.03,East,85,0.0,0.0,23,0.00,CLR,,0.00,WeatherDisplay:10.37,2013-08-30 07:20:00,
2013-08-30 03:25:00,66.4,27.4,29.03,East,85,0.0,0.0,23,0.00,CLR,,0.00,WeatherDisplay:10.37,2013-08-30 07:25:00,
2013-08-30 03:30:00,66.4,27.4,29.03,East,85,0.0,0.0,23,0.00,CLR,,0.00,WeatherDisplay:10.37,2013-08-30 07:30:00,
2013-08-30 03:35:00,66.2,27.3,29.03,East,85,0.0,0.0,23,0.00,CLR,,0.00,WeatherDisplay:10.37,2013-08-30 07:35:00,
2013-08-30 03:40:00,66.0,27.1,29.03,East,85,0.0,0.0,23,0.00,CLR,,0.00,WeatherDisplay:10.37,2013-08-30 07:40:00,
2013-08-30 03:50:00,65.7,26.8,29.03,East,85,0.0,0.0,23,0.00,CLR,,0.00,WeatherDisplay:10.37,2013-08-30 07:50:00,
2013-08-30 04:00:00,65.7,27.9,29.03,East,85,0.0,0.0,24,0.00,CLR,,0.00,WeatherDisplay:10.37,2013-08-30 08:00:00,
2013-08-30 04:05:00,65.7,27.9,29.03,East,85,0.0,0.0,24,0.00,CLR,,0.00,WeatherDisplay:10.37,2013-08-30 08:05:00,
2013-08-30 04:15:00,65.5,26.7,29.03,East,85,0.0,0.0,23,0.00,CLR,,0.00,WeatherDisplay:10.37,2013-08-30 08:15:00,
2013-08-30 04:20:00,65.3,27.5,29.03,East,85,0.0,0.0,24,0.00,CLR,,0.00,WeatherDisplay:10.37,2013-08-30 08:20:00,
2013-08-30 04:30:00,65.3,27.5,29.03,East,85,0.0,0.0,24,0.00,CLR,,0.00,WeatherDisplay:10.37,2013-08-30 08:30:00,
2013-08-30 04:35:00,65.1,27.4,29.03,East,85,0.0,0.0,24,0.00,CLR,,0.00,WeatherDisplay:10.37,2013-08-30 08:35:00,
2013-08-30 04:40:00,65.1,27.4,29.03,East,85,0.0,0.0,24,0.00,CLR,,0.00,WeatherDisplay:10.37,2013-08-30 08:40:00,
2013-08-30 04:45:00,65.1,27.4,29.03,East,85,0.0,0.0,24,0.00,CLR,,0.00,WeatherDisplay:10.37,2013-08-30 08:45:00,
2013-08-30 04:55:00,64.9,27.2,29.03,East,85,0.0,0.0,24,0.00,CLR,,0.00,WeatherDisplay:10.37,2013-08-30 08:55:00,
2013-08-30 05:00:00,64.9,27.2,29.03,East,85,0.0,0.0,24,0.00,CLR,,0.00,WeatherDisplay:10.37,2013-08-30 09:00:00,
2013-08-30 05:05:00,64.8,27.1,29.03,East,85,0.0,0.0,24,0.00,CLR,,0.00,WeatherDisplay:10.37,2013-08-30 09:05:00,
2013-08-30 05:10:00,64.8,27.1,29.03,East,85,0.0,0.0,24,0.00,CLR,,0.00,WeatherDisplay:10.37,2013-08-30 09:10:00,
2013-08-30 05:20:00,64.8,27.1,29.03,East,85,0.0,0.0,24,0.00,CLR,,0.00,WeatherDisplay:10.37,2013-08-30 09:20:00,
2013-08-30 05:25:00,64.8,27.1,29.03,East,85,0.0,0.0,24,0.00,CLR,,0.00,WeatherDisplay:10.37,2013-08-30 09:25:00,
2013-08-30 05:30:00,64.8,27.1,29.03,East,85,0.0,0.0,24,0.00,CLR,,0.00,WeatherDisplay:10.37,2013-08-30 09:30:00,
2013-08-30 05:40:00,64.8,27.1,29.03,East,85,0.0,0.0,24,0.00,CLR,,0.00,WeatherDisplay:10.37,2013-08-30 09:40:00,
2013-08-30 05:50:00,64.6,26.9,29.03,East,85,0.0,0.0,24,0.00,CLR,,0.00,WeatherDisplay:10.37,2013-08-30 09:50:00,
2013-08-30 05:55:00,64.6,26.9,29.03,East,85,0.0,0.0,24,0.00,CLR,,0.00,WeatherDisplay:10.37,2013-08-30 09:55:00,
2013-08-30 06:00:00,64.6,26.9,29.03,East,85,0.0,0.0,24,0.00,CLR,,0.00,WeatherDisplay:10.37,2013-08-30 10:00:00,
2013-08-30 06:10:00,64.4,26.8,29.03,East,85,0.0,0.0,24,0.00,CLR,,0.00,WeatherDisplay:10.37,2013-08-30 10:10:00,
2013-08-30 06:15:00,64.4,26.8,29.03,East,85,0.0,0.0,24,0.00,CLR,,0.00,WeatherDisplay:10.37,2013-08-30 10:15:00,
2013-08-30 06:20:00,64.6,26.9,29.03,East,85,0.0,0.0,24,0.00,CLR,,0.00,WeatherDisplay:10.37,2013-08-30 10:20:00,
2013-08-30 06:25:00,64.6,26.9,29.03,East,85,0.0,0.0,24,0.00,CLR,,0.00,WeatherDisplay:10.37,2013-08-30 10:25:00,
2013-08-30 06:30:00,64.4,26.8,29.03,East,85,0.0,0.0,24,0.00,CLR,,0.00,WeatherDisplay:10.37,2013-08-30 10:30:00,
2013-08-30 06:40:00,64.2,27.6,29.03,East,85,0.0,0.0,25,0.00,CLR,,0.00,WeatherDisplay:10.37,2013-08-30 10:40:00,
2013-08-30 06:50:00,64.0,27.5,29.03,East,85,0.0,0.0,25,0.00,CLR,,0.00,WeatherDisplay:10.37,2013-08-30 10:50:00,
2013-08-30 07:00:00,64.0,27.5,29.03,East,85,0.0,0.0,25,0.00,CLR,,0.00,WeatherDisplay:10.37,2013-08-30 11:00:00,
2013-08-30 07:10:00,64.2,27.6,29.03,East,85,0.0,0.0,25,0.00,CLR,,0.00,WeatherDisplay:10.37,2013-08-30 11:10:00,
2013-08-30 07:20:00,64.4,27.8,29.03,East,85,0.0,0.0,25,0.00,CLR,,0.00,WeatherDisplay:10.37,2013-08-30 11:20:00,
2013-08-30 07:25:00,64.6,27.9,29.03,East,85,0.0,0.0,25,0.00,CLR,,0.00,WeatherDisplay:10.37,2013-08-30 11:25:00,
2013-08-30 07:30:00,64.8,28.1,29.03,East,85,0.0,0.0,25,0.00,CLR,,0.00,WeatherDisplay:10.37,2013-08-30 11:30:00,
2013-08-30 07:40:00,65.7,28.8,29.03,East,85,0.0,0.0,25,0.00,CLR,,0.00,WeatherDisplay:10.37,2013-08-30 11:40:00,
2013-08-30 07:45:00,66.4,28.4,29.03,East,85,0.0,0.0,24,0.00,CLR,,0.00,WeatherDisplay:10.37,2013-08-30 11:45:00,
2013-08-30 07:55:00,68.2,30.0,29.03,East,85,0.0,0.0,24,0.00,CLR,,0.00,WeatherDisplay:10.37,2013-08-30 11:55:00,
2013-08-30 08:00:00,69.3,30.9,29.03,East,85,0.0,0.0,24,0.00,CLR,,0.00,WeatherDisplay:10.37,2013-08-30 12:00:00,
2013-08-30 08:05:00,70.3,31.7,29.03,East,85,0.0,0.0,24,0.00,CLR,,0.00,WeatherDisplay:10.37,2013-08-30 12:05:00,
2013-08-30 08:10:00,71.1,32.5,29.03,East,85,0.0,0.0,24,0.00,CLR,,0.00,WeatherDisplay:10.37,2013-08-30 12:10:00,
2013-08-30 08:15:00,72.0,33.2,29.03,East,98,0.0,0.0,24,0.00,CLR,,0.00,WeatherDisplay:10.37,2013-08-30 12:15:00,
2013-08-30 08:20:00,72.5,33.6,29.03,South,175,0.0,2.0,24,0.00,CLR,,0.00,WeatherDisplay:10.37,2013-08-30 12:20:00,
2013-08-30 08:25:00,72.8,33.9,29.03,SW,228,0.0,0.0,24,0.00,CLR,,0.00,WeatherDisplay:10.37,2013-08-30 12:25:00,
2013-08-30 08:30:00,73.4,33.3,29.03,SW,234,0.0,0.0,23,0.00,CLR,,0.00,WeatherDisplay:10.37,2013-08-30 12:30:00,
2013-08-30 08:35:00,73.9,33.8,29.03,WSW,246,0.0,0.0,23,0.00,CLR,,0.00,WeatherDisplay:10.37,2013-08-30 12:35:00,
2013-08-30 08:45:00,75.0,34.7,29.00,WSW,252,0.0,0.0,23,0.00,CLR,,0.00,WeatherDisplay:10.37,2013-08-30 12:45:00,
2013-08-30 08:50:00,75.6,34.0,29.00,WSW,242,0.0,3.0,22,0.00,CLR,,0.00,WeatherDisplay:10.37,2013-08-30 12:50:00,
2013-08-30 08:55:00,76.1,34.5,29.01,SW,226,1.0,6.0,22,0.00,CLR,,0.00,WeatherDisplay:10.37,2013-08-30 12:55:00,
2013-08-30 09:00:00,76.6,33.8,29.03,WSW,239,0.0,3.0,21,0.00,CLR,,0.00,WeatherDisplay:10.37,2013-08-30 13:00:00,
2013-08-30 09:05:00,77.0,34.1,29.03,WSW,245,0.0,3.0,21,0.00,CLR,,0.00,WeatherDisplay:10.37,2013-08-30 13:05:00,
2013-08-30 09:10:00,77.5,33.3,29.03,WSW,241,0.0,3.0,20,0.00,CLR,,0.00,WeatherDisplay:10.37,2013-08-30 13:10:00,
2013-08-30 09:15:00,78.1,33.8,29.03,SW,216,0.0,5.0,20,0.00,CLR,,0.00,WeatherDisplay:10.37,2013-08-30 13:15:00,
2013-08-30 09:20:00,78.3,31.3,29.03,SSW,194,0.0,5.0,18,0.00,CLR,,0.00,WeatherDisplay:10.37,2013-08-30 13:20:00,
2013-08-30 09:30:00,79.1,27.4,29.03,SW,217,0.0,4.0,15,0.00,CLR,,0.00,WeatherDisplay:10.37,2013-08-30 13:30:00,
2013-08-30 09:40:00,80.4,28.5,29.03,SW,233,0.0,2.0,15,0.00,CLR,,0.00,WeatherDisplay:10.37,2013-08-30 13:40:00,
2013-08-30 09:50:00,81.9,28.0,29.03,SW,236,0.0,4.0,14,0.00,CLR,,0.00,WeatherDisplay:10.37,2013-08-30 13:50:00,
2013-08-30 09:55:00,82.0,28.1,29.03,WSW,252,0.0,5.0,14,0.00,CLR,,0.00,WeatherDisplay:10.37,2013-08-30 13:55:00,
2013-08-30 10:00:00,82.1,28.2,29.03,West,259,0.0,3.0,14,0.00,CLR,,0.00,WeatherDisplay:10.37,2013-08-30 14:00:00,
2013-08-30 10:05:00,82.6,28.5,29.03,SW,227,0.0,5.0,14,0.00,CLR,,0.00,WeatherDisplay:10.37,2013-08-30 14:05:00,
2013-08-30 10:10:00,82.8,28.7,29.03,SW,234,2.0,6.0,14,0.00,CLR,,0.00,WeatherDisplay:10.37,2013-08-30 14:10:00,
2013-08-30 10:20:00,83.5,29.2,29.03,South,182,0.0,4.0,14,0.00,CLR,,0.00,WeatherDisplay:10.37,2013-08-30 14:20:00,
2013-08-30 10:25:00,83.8,29.5,29.03,South,183,1.0,6.0,14,0.00,CLR,,0.00,WeatherDisplay:10.37,2013-08-30 14:25:00,
2013-08-30 10:30:00,83.8,29.5,29.03,SSW,199,1.0,6.0,14,0.00,CLR,,0.00,WeatherDisplay:10.37,2013-08-30 14:30:00,
2013-08-30 10:40:00,84.7,28.4,29.03,SW,234,0.0,4.0,13,0.00,CLR,,0.00,WeatherDisplay:10.37,2013-08-30 14:40:00,
2013-08-30 10:50:00,85.8,29.3,29.03,SSW,197,1.0,5.0,13,0.00,CLR,,0.00,WeatherDisplay:10.37,2013-08-30 14:50:00,
2013-08-30 10:55:00,86.1,29.5,29.00,SW,231,0.0,5.0,13,0.00,CLR,,0.00,WeatherDisplay:10.37,2013-08-30 14:55:00,
2013-08-30 11:00:00,85.8,29.3,29.00,SW,229,3.0,8.0,13,0.00,CLR,,0.00,WeatherDisplay:10.37,2013-08-30 15:00:00,
2013-08-30 11:05:00,85.9,29.3,29.00,SW,235,1.0,6.0,13,0.00,CLR,,0.00,WeatherDisplay:10.37,2013-08-30 15:05:00,
2013-08-30 11:10:00,86.1,29.5,29.00,SW,236,1.0,8.0,13,0.00,CLR,,0.00,WeatherDisplay:10.37,2013-08-30 15:10:00,
2013-08-30 11:15:00,86.5,29.8,29.00,WSW,244,3.0,8.0,13,0.00,CLR,,0.00,WeatherDisplay:10.37,2013-08-30 15:15:00,
2013-08-30 11:25:00,86.2,29.6,29.00,WSW,240,5.0,6.0,13,0.00,CLR,,0.00,WeatherDisplay:10.37,2013-08-30 15:25:00,
2013-08-30 11:30:00,84.9,28.6,29.00,WSW,250,6.0,10.0,13,0.00,CLR,,0.00,WeatherDisplay:10.37,2013-08-30 15:30:00,
2013-08-30 11:35:00,84.4,28.1,29.00,WSW,250,6.0,10.0,13,0.00,CLR,,0.00,WeatherDisplay:10.37,2013-08-30 15:35:00,
2013-08-30 11:40:00,85.0,28.6,29.00,WSW,252,3.0,8.0,13,0.00,CLR,,0.00,WeatherDisplay:10.37,2013-08-30 15:40:00,
2013-08-30 11:50:00,86.6,29.9,29.00,WSW,253,5.0,6.0,13,0.00,CLR,,0.00,WeatherDisplay:10.37,2013-08-30 15:50:00,
2013-08-30 11:55:00,87.2,30.3,29.00,WSW,254,5.0,6.0,13,0.00,CLR,,0.00,WeatherDisplay:10.37,2013-08-30 15:55:00,
2013-08-30 12:00:00,88.2,31.1,29.00,WSW,244,3.0,6.0,13,0.00,CLR,,0.00,WeatherDisplay:10.37,2013-08-30 16:00:00,
2013-08-30 12:10:00,89.2,31.9,29.00,WSW,238,2.0,8.0,13,0.00,CLR,,0.00,WeatherDisplay:10.37,2013-08-30 16:10:00,
2013-08-30 12:15:00,89.4,32.1,29.00,SSW,197,1.0,6.0,13,0.00,CLR,,0.00,WeatherDisplay:10.37,2013-08-30 16:15:00,
2013-08-30 12:20:00,89.5,30.2,29.00,SW,226,1.0,6.0,12,0.00,CLR,,0.00,WeatherDisplay:10.37,2013-08-30 16:20:00,
2013-08-30 12:30:00,88.0,31.0,29.00,WSW,249,1.0,6.0,13,0.00,CLR,,0.00,WeatherDisplay:10.37,2013-08-30 16:30:00,
2013-08-30 12:40:00,86.2,29.6,29.00,WSW,255,2.0,7.0,13,0.00,CLR,,0.00,WeatherDisplay:10.37,2013-08-30 16:40:00,
2013-08-30 12:50:00,88.9,31.7,29.00,SSW,207,5.0,8.0,13,0.00,CLR,,0.00,WeatherDisplay:10.37,2013-08-30 16:50:00,
2013-08-30 13:00:00,89.9,30.5,28.97,SW,236,5.0,8.0,12,0.00,CLR,,0.00,WeatherDisplay:10.37,2013-08-30 17:00:00,
2013-08-30 13:10:00,88.4,31.3,28.97,West,270,5.0,8.0,13,0.00,CLR,,0.00,WeatherDisplay:10.37,2013-08-30 17:10:00,
2013-08-30 13:20:00,88.0,31.0,28.97,WSW,254,3.0,8.0,13,0.00,CLR,,0.00,WeatherDisplay:10.37,2013-08-30 17:20:00,
2013-08-30 13:25:00,89.3,32.0,28.97,WSW,246,3.0,6.0,13,0.00,CLR,,0.00,WeatherDisplay:10.37,2013-08-30 17:25:00,
2013-08-30 13:30:00,90.1,30.6,28.97,SW,224,6.0,7.0,12,0.00,CLR,,0.00,WeatherDisplay:10.37,2013-08-30 17:30:00,
2013-08-30 13:40:00,90.3,30.8,28.97,SW,229,1.0,8.0,12,0.00,CLR,,0.00,WeatherDisplay:10.37,2013-08-30 17:40:00,
2013-08-30 13:50:00,89.6,30.2,28.97,SW,236,5.0,6.0,12,0.00,CLR,,0.00,WeatherDisplay:10.37,2013-08-30 17:50:00,
2013-08-30 14:00:00,89.7,30.3,28.97,WSW,250,5.0,9.0,12,0.00,CLR,,0.00,WeatherDisplay:10.37,2013-08-30 18:00:00,
2013-08-30 14:10:00,90.9,31.2,28.97,WSW,249,5.0,9.0,12,0.00,CLR,,0.00,WeatherDisplay:10.37,2013-08-30 18:10:00,
2013-08-30 14:15:00,90.5,30.9,28.97,West,260,2.0,8.0,12,0.00,CLR,,0.00,WeatherDisplay:10.37,2013-08-30 18:15:00,
2013-08-30 14:20:00,90.7,31.1,28.97,WSW,257,7.0,10.0,12,0.00,CLR,,0.00,WeatherDisplay:10.37,2013-08-30 18:20:00,
2013-08-30 14:30:00,91.2,31.5,28.97,WSW,248,3.0,8.0,12,0.00,CLR,,0.00,WeatherDisplay:10.37,2013-08-30 18:30:00,
2013-08-30 14:35:00,91.8,31.9,28.97,WSW,248,3.0,6.0,12,0.00,CLR,,0.00,WeatherDisplay:10.37,2013-08-30 18:35:00,
2013-08-30 14:40:00,90.7,31.1,28.97,West,266,2.0,6.0,12,0.00,CLR,,0.00,WeatherDisplay:10.37,2013-08-30 18:40:00,
2013-08-30 14:45:00,90.3,30.8,28.97,West,270,5.0,8.0,12,0.00,CLR,,0.00,WeatherDisplay:10.37,2013-08-30 18:45:00,
2013-08-30 14:50:00,90.0,30.5,28.97,West,271,5.0,10.0,12,0.00,CLR,,0.00,WeatherDisplay:10.37,2013-08-30 18:50:00,
2013-08-30 14:55:00,90.3,30.8,28.97,WSW,256,5.0,8.0,12,0.00,CLR,,0.00,WeatherDisplay:10.37,2013-08-30 18:55:00,
2013-08-30 15:05:00,89.6,30.2,28.97,WNW,284,7.0,8.0,12,0.00,CLR,,0.00,WeatherDisplay:10.37,2013-08-30 19:05:00,
2013-08-30 15:10:00,90.4,30.9,28.95,WSW,258,2.0,6.0,12,0.00,CLR,,0.00,WeatherDisplay:10.37,2013-08-30 19:10:00,
2013-08-30 15:20:00,91.2,31.5,28.94,West,269,3.0,8.0,12,0.00,CLR,,0.00,WeatherDisplay:10.37,2013-08-30 19:20:00,
2013-08-30 15:25:00,90.9,31.2,28.94,West,276,2.0,6.0,12,0.00,CLR,,0.00,WeatherDisplay:10.37,2013-08-30 19:25:00,
2013-08-30 15:30:00,91.0,31.4,28.94,West,269,5.0,6.0,12,0.00,CLR,,0.00,WeatherDisplay:10.37,2013-08-30 19:30:00,
2013-08-30 15:35:00,90.9,31.2,28.94,WNW,285,3.0,6.0,12,0.00,CLR,,0.00,WeatherDisplay:10.37,2013-08-30 19:35:00,
2013-08-30 15:40:00,90.9,31.3,28.94,WNW,282,2.0,7.0,12,0.00,CLR,,0.00,WeatherDisplay:10.37,2013-08-30 19:40:00,
2013-08-30 15:50:00,90.9,31.3,28.94,WSW,257,6.0,11.0,12,0.00,CLR,,0.00,WeatherDisplay:10.37,2013-08-30 19:50:00,
2013-08-30 15:55:00,90.7,31.1,28.94,West,275,3.0,8.0,12,0.00,CLR,,0.00,WeatherDisplay:10.37,2013-08-30 19:55:00,
2013-08-30 16:00:00,91.2,31.5,28.94,West,269,0.0,9.0,12,0.00,CLR,,0.00,WeatherDisplay:10.37,2013-08-30 20:00:00,
2013-08-30 16:10:00,91.8,31.9,28.94,West,267,2.0,6.0,12,0.00,CLR,,0.00,WeatherDisplay:10.37,2013-08-30 20:10:00,
2013-08-30 16:15:00,91.6,31.8,28.94,WSW,256,5.0,8.0,12,0.00,CLR,,0.00,WeatherDisplay:10.37,2013-08-30 20:15:00,
2013-08-30 16:20:00,91.9,32.0,28.94,WSW,254,5.0,6.0,12,0.00,CLR,,0.00,WeatherDisplay:10.37,2013-08-30 20:20:00,
2013-08-30 16:25:00,91.8,32.0,28.94,West,267,3.0,8.0,12,0.00,CLR,,0.00,WeatherDisplay:10.37,2013-08-30 20:25:00,
2013-08-30 16:30:00,91.6,31.8,28.94,West,262,3.0,7.0,12,0.00,CLR,,0.00,WeatherDisplay:10.37,2013-08-30 20:30:00,
2013-08-30 16:35:00,91.8,31.9,28.94,WSW,251,5.0,8.0,12,0.00,CLR,,0.00,WeatherDisplay:10.37,2013-08-30 20:35:00,
2013-08-30 16:45:00,91.4,31.6,28.91,WNW,287,1.0,6.0,12,0.00,CLR,,0.00,WeatherDisplay:10.37,2013-08-30 20:45:00,
2013-08-30 16:50:00,91.9,32.0,28.91,West,261,5.0,7.0,12,0.00,CLR,,0.00,WeatherDisplay:10.37,2013-08-30 20:50:00,
2013-08-30 16:55:00,92.0,32.1,28.91,West,274,5.0,6.0,12,0.00,CLR,,0.00,WeatherDisplay:10.37,2013-08-30 20:55:00,
2013-08-30 17:00:00,91.8,31.9,28.91,WNW,292,5.0,8.0,12,0.00,CLR,,0.00,WeatherDisplay:10.37,2013-08-30 21:00:00,
2013-08-30 17:10:00,91.4,31.6,28.91,WNW,291,3.0,8.0,12,0.00,CLR,,0.00,WeatherDisplay:10.37,2013-08-30 21:10:00,
2013-08-30 17:15:00,91.4,31.6,28.91,WNW,288,5.0,6.0,12,0.00,CLR,,0.00,WeatherDisplay:10.37,2013-08-30 21:15:00,
2013-08-30 17:20:00,91.2,31.5,28.91,WNW,296,3.0,6.0,12,0.00,CLR,,0.00,WeatherDisplay:10.37,2013-08-30 21:20:00,
2013-08-30 17:30:00,90.9,31.2,28.91,WNW,296,5.0,6.0,12,0.00,CLR,,0.00,WeatherDisplay:10.37,2013-08-30 21:30:00,
2013-08-30 17:35:00,91.0,31.4,28.91,West,272,3.0,6.0,12,0.00,CLR,,0.00,WeatherDisplay:10.37,2013-08-30 21:35:00,
2013-08-30 17:40:00,91.0,31.4,28.91,West,271,3.0,6.0,12,0.00,CLR,,0.00,WeatherDisplay:10.37,2013-08-30 21:40:00,
2013-08-30 17:50:00,91.0,31.4,28.91,WNW,283,3.0,8.0,12,0.00,CLR,,0.00,WeatherDisplay:10.37,2013-08-30 21:50:00,
2013-08-30 17:55:00,91.0,31.4,28.91,West,274,5.0,8.0,12,0.00,CLR,,0.00,WeatherDisplay:10.37,2013-08-30 21:55:00,
2013-08-30 18:00:00,90.9,31.2,28.91,West,275,3.0,7.0,12,0.00,CLR,,0.00,WeatherDisplay:10.37,2013-08-30 22:00:00,
2013-08-30 18:05:00,90.7,31.1,28.91,West,271,5.0,7.0,12,0.00,CLR,,0.00,WeatherDisplay:10.37,2013-08-30 22:05:00,
2013-08-30 18:10:00,90.8,31.2,28.91,WSW,255,3.0,6.0,12,0.00,CLR,,0.00,WeatherDisplay:10.37,2013-08-30 22:10:00,
2013-08-30 18:15:00,90.7,31.1,28.91,WSW,254,1.0,6.0,12,0.00,CLR,,0.00,WeatherDisplay:10.37,2013-08-30 22:15:00,
2013-08-30 18:20:00,90.7,31.1,28.91,West,265,3.0,6.0,12,0.00,CLR,,0.00,WeatherDisplay:10.37,2013-08-30 22:20:00,
2013-08-30 18:25:00,90.7,31.1,28.90,WSW,257,3.0,6.0,12,0.00,CLR,,0.00,WeatherDisplay:10.37,2013-08-30 22:25:00,
2013-08-30 18:30:00,90.7,31.1,28.88,WSW,254,2.0,8.0,12,0.00,CLR,,0.00,WeatherDisplay:10.37,2013-08-30 22:30:00,
2013-08-30 18:35:00,90.7,31.1,28.88,WSW,250,3.0,6.0,12,0.00,CLR,,0.00,WeatherDisplay:10.37,2013-08-30 22:35:00,
2013-08-30 18:40:00,90.5,31.0,28.88,WSW,248,2.0,6.0,12,0.00,CLR,,0.00,WeatherDisplay:10.37,2013-08-30 22:40:00,
2013-08-30 18:50:00,90.7,31.1,28.88,WSW,249,2.0,6.0,12,0.00,CLR,,0.00,WeatherDisplay:10.37,2013-08-30 22:50:00,
2013-08-30 18:55:00,90.5,30.9,28.88,WSW,247,2.0,5.0,12,0.00,CLR,,0.00,WeatherDisplay:10.37,2013-08-30 22:55:00,
2013-08-30 19:00:00,90.5,30.9,28.88,West,259,3.0,5.0,12,0.00,CLR,,0.00,WeatherDisplay:10.37,2013-08-30 23:00:00,
2013-08-30 19:05:00,90.3,30.8,28.88,WSW,255,3.0,7.0,12,0.00,CLR,,0.00,WeatherDisplay:10.37,2013-08-30 23:05:00,
2013-08-30 19:10:00,90.0,30.6,28.88,WSW,254,3.0,6.0,12,0.00,CLR,,0.00,WeatherDisplay:10.37,2013-08-30 23:10:00,
2013-08-30 19:20:00,89.2,31.9,28.88,WSW,255,2.0,5.0,13,0.00,CLR,,0.00,WeatherDisplay:10.37,2013-08-30 23:20:00,
2013-08-30 19:30:00,88.3,31.2,28.88,WSW,246,1.0,4.0,13,0.00,CLR,,0.00,WeatherDisplay:10.37,2013-08-30 23:30:00,
2013-08-30 19:35:00,88.2,31.1,28.88,WSW,246,0.0,3.0,13,0.00,CLR,,0.00,WeatherDisplay:10.37,2013-08-30 23:35:00,
2013-08-30 19:40:00,88.0,31.0,28.88,WSW,251,0.0,4.0,13,0.00,CLR,,0.00,WeatherDisplay:10.37,2013-08-30 23:40:00,
2013-08-30 19:45:00,88.2,31.1,28.88,WSW,252,0.0,0.0,13,0.00,CLR,,0.00,WeatherDisplay:10.37,2013-08-30 23:45:00,
2013-08-30 19:50:00,88.3,31.2,28.88,WSW,252,0.0,0.0,13,0.00,CLR,,0.00,WeatherDisplay:10.37,2013-08-30 23:50:00,
2013-08-30 19:55:00,87.7,30.7,28.88,WSW,252,0.0,0.0,13,0.00,CLR,,0.00,WeatherDisplay:10.37,2013-08-30 23:55:00,
2013-08-30 20:05:00,86.0,29.4,28.88,WSW,252,0.0,0.0,13,0.00,CLR,,0.00,WeatherDisplay:10.37,2013-08-31 00:05:00,
2013-08-30 20:10:00,85.2,28.8,28.88,WSW,252,0.0,0.0,13,0.00,CLR,,0.00,WeatherDisplay:10.37,2013-08-31 00:10:00,
2013-08-30 20:15:00,84.6,28.3,28.88,WSW,252,0.0,0.0,13,0.00,CLR,,0.00,WeatherDisplay:10.37,2013-08-31 00:15:00,
2013-08-30 20:20:00,84.2,28.0,28.88,WSW,252,0.0,0.0,13,0.00,CLR,,0.00,WeatherDisplay:10.37,2013-08-31 00:20:00,
2013-08-30 20:30:00,83.3,29.1,28.88,WSW,252,0.0,0.0,14,0.00,CLR,,0.00,WeatherDisplay:10.37,2013-08-31 00:30:00,
2013-08-30 20:35:00,83.0,28.9,28.88,WSW,252,0.0,0.0,14,0.00,CLR,,0.00,WeatherDisplay:10.37,2013-08-31 00:35:00,
2013-08-30 20:40:00,82.6,28.6,28.88,WSW,252,0.0,0.0,14,0.00,CLR,,0.00,WeatherDisplay:10.37,2013-08-31 00:40:00,
2013-08-30 20:45:00,82.3,28.3,28.88,WSW,252,0.0,0.0,14,0.00,CLR,,0.00,WeatherDisplay:10.37,2013-08-31 00:45:00,
2013-08-30 20:50:00,82.2,28.3,28.88,WSW,251,0.0,0.0,14,0.00,CLR,,0.00,WeatherDisplay:10.37,2013-08-31 00:50:00,
2013-08-30 20:55:00,82.0,28.1,28.88,WSW,251,0.0,0.0,14,0.00,CLR,,0.00,WeatherDisplay:10.37,2013-08-31 00:55:00,
2013-08-30 21:05:00,81.9,28.0,28.88,WSW,251,0.0,0.0,14,0.00,CLR,,0.00,WeatherDisplay:10.37,2013-08-31 01:05:00,
2013-08-30 21:10:00,81.7,27.8,28.88,WSW,251,0.0,0.0,14,0.00,CLR,,0.00,WeatherDisplay:10.37,2013-08-31 01:10:00,
2013-08-30 21:15:00,81.5,27.7,28.88,WSW,250,0.0,0.0,14,0.00,CLR,,0.00,WeatherDisplay:10.37,2013-08-31 01:15:00,
2013-08-30 21:20:00,81.5,27.7,28.88,WSW,249,0.0,0.0,14,0.00,CLR,,0.00,WeatherDisplay:10.37,2013-08-31 01:20:00,
2013-08-30 21:30:00,81.3,27.5,28.88,SSW,204,0.0,0.0,14,0.00,CLR,,0.00,WeatherDisplay:10.37,2013-08-31 01:30:00,
2013-08-30 21:35:00,81.3,27.5,28.88,South,173,0.0,3.0,14,0.00,CLR,,0.00,WeatherDisplay:10.37,2013-08-31 01:35:00,
2013-08-30 21:40:00,81.0,27.3,28.88,SW,225,0.0,5.0,14,0.00,CLR,,0.00,WeatherDisplay:10.37,2013-08-31 01:40:00,
2013-08-30 21:45:00,80.8,27.1,28.88,WSW,244,0.0,5.0,14,0.00,CLR,,0.00,WeatherDisplay:10.37,2013-08-31 01:45:00,
2013-08-30 21:50:00,80.6,27.0,28.88,WSW,251,0.0,0.0,14,0.00,CLR,,0.00,WeatherDisplay:10.37,2013-08-31 01:50:00,
2013-08-30 22:00:00,80.4,28.5,28.88,WSW,240,0.0,0.0,15,0.00,CLR,,0.00,WeatherDisplay:10.37,2013-08-31 02:00:00,
2013-08-30 22:05:00,80.4,28.5,28.88,WSW,247,0.0,4.0,15,0.00,CLR,,0.00,WeatherDisplay:10.37,2013-08-31 02:05:00,
2013-08-30 22:10:00,80.6,27.0,28.88,WSW,244,0.0,4.0,14,0.00,CLR,,0.00,WeatherDisplay:10.37,2013-08-31 02:10:00,
2013-08-30 22:15:00,80.6,27.0,28.88,WSW,239,0.0,6.0,14,0.00,CLR,,0.00,WeatherDisplay:10.37,2013-08-31 02:15:00,
2013-08-30 22:20:00,80.6,27.0,28.88,WSW,245,1.0,4.0,14,0.00,CLR,,0.00,WeatherDisplay:10.37,2013-08-31 02:20:00,
2013-08-30 22:25:00,80.6,27.0,28.88,WSW,249,0.0,0.0,14,0.00,CLR,,0.00,WeatherDisplay:10.37,2013-08-31 02:25:00,
2013-08-30 22:30:00,80.6,27.0,28.88,WSW,256,1.0,4.0,14,0.00,CLR,,0.00,WeatherDisplay:10.37,2013-08-31 02:30:00,
2013-08-30 22:40:00,80.6,27.0,28.88,WSW,240,2.0,6.0,14,0.00,CLR,,0.00,WeatherDisplay:10.37,2013-08-31 02:40:00,
2013-08-30 22:45:00,80.4,28.5,28.88,WSW,240,1.0,4.0,15,0.00,CLR,,0.00,WeatherDisplay:10.37,2013-08-31 02:45:00,
2013-08-30 22:50:00,80.4,28.5,28.88,WSW,242,1.0,4.0,15,0.00,CLR,,0.00,WeatherDisplay:10.37,2013-08-31 02:50:00,
2013-08-30 23:00:00,80.2,28.4,28.85,WSW,248,2.0,6.0,15,0.00,CLR,,0.00,WeatherDisplay:10.37,2013-08-31 03:00:00,
2013-08-30 23:05:00,80.2,28.4,28.85,WSW,250,3.0,6.0,15,0.00,CLR,,0.00,WeatherDisplay:10.37,2013-08-31 03:05:00,
2013-08-30 23:15:00,80.2,28.4,28.85,WSW,245,2.0,4.0,15,0.00,CLR,,0.00,WeatherDisplay:10.37,2013-08-31 03:15:00,
2013-08-30 23:20:00,80.2,28.4,28.85,WSW,247,3.0,6.0,15,0.00,CLR,,0.00,WeatherDisplay:10.37,2013-08-31 03:20:00,
2013-08-30 23:30:00,80.6,27.0,28.85,WSW,249,5.0,9.0,14,0.00,CLR,,0.00,WeatherDisplay:10.37,2013-08-31 03:30:00,
2013-08-30 23:35:00,80.8,27.1,28.85,WSW,254,5.0,6.0,14,0.00,CLR,,0.00,WeatherDisplay:10.37,2013-08-31 03:35:00,
2013-08-30 23:40:00,80.7,27.0,28.85,WSW,250,6.0,9.0,14,0.00,CLR,,0.00,WeatherDisplay:10.37,2013-08-31 03:40:00,
2013-08-30 23:45:00,80.6,27.0,28.85,WSW,243,5.0,8.0,14,0.00,CLR,,0.00,WeatherDisplay:10.37,2013-08-31 03:45:00,
2013-08-30 23:50:00,80.6,27.0,28.85,WSW,239,5.0,8.0,14,0.00,CLR,,0.00,WeatherDisplay:10.37,2013-08-31 03:50:00,
2013-08-30 23:55:00,80.4,28.5,28.85,SW,231,3.0,8.0,15,0.00,CLR,,0.00,WeatherDisplay:10.37,2013-08-31 03:55:00,